createdAt,value
2023-03-06T00:01:18.758Z,3.63
2023-03-06T00:03:50.128Z,2.80
2023-03-06T00:06:22.025Z,3.17
2023-03-06T00:08:54.196Z,3.50
2023-03-06T00:11:25.548Z,3.17
2023-03-06T00:13:56.924Z,3.80
2023-03-06T00:16:28.488Z,3.47
2023-03-06T00:18:59.844Z,4.73
2023-03-06T00:21:31.091Z,6.87
2023-03-06T00:24:02.461Z,6.23
2023-03-06T00:26:35.546Z,5.70
2023-03-06T00:29:07.858Z,5.47
2023-03-06T00:31:39.238Z,5.50
2023-03-06T00:34:10.577Z,4.83
2023-03-06T00:36:41.958Z,5.43
2023-03-06T00:39:13.288Z,6.67
2023-03-06T00:41:46.911Z,4.67
2023-03-06T00:44:18.391Z,4.87
2023-03-06T00:46:49.728Z,3.77
2023-03-06T00:49:20.984Z,3.83
2023-03-06T00:51:52.511Z,4.37
2023-03-06T00:54:23.779Z,4.20
2023-03-06T00:56:55.305Z,4.43
2023-03-06T00:59:27.636Z,4.13
2023-03-06T01:01:59.223Z,4.53
2023-03-06T01:04:30.817Z,4.67
2023-03-06T01:07:02.347Z,4.40
2023-03-06T01:09:33.650Z,4.77
2023-03-06T01:12:05.103Z,4.47
2023-03-06T01:14:36.522Z,4.40
2023-03-06T01:17:07.804Z,4.50
2023-03-06T01:19:39.117Z,4.27
2023-03-06T01:22:11.426Z,4.33
2023-03-06T01:24:42.735Z,4.57
2023-03-06T01:27:14.439Z,4.43
2023-03-06T01:29:45.724Z,4.47
2023-03-06T01:32:17.035Z,3.90
2023-03-06T01:34:48.518Z,4.27
2023-03-06T01:37:19.919Z,4.60
2023-03-06T01:39:51.270Z,4.23
2023-03-06T01:42:22.673Z,4.00
2023-03-06T01:45:04.008Z,3.97
2023-03-06T01:47:35.403Z,4.53
2023-03-06T01:50:10.404Z,3.97
2023-03-06T01:52:52.325Z,3.80
2023-03-06T01:55:30.491Z,3.83
2023-03-06T01:58:06.971Z,3.33
2023-03-06T02:00:38.372Z,3.70
2023-03-06T02:03:13.897Z,3.13
2023-03-06T02:05:45.508Z,2.83
2023-03-06T02:08:19.572Z,3.60
2023-03-06T02:11:13.868Z,3.50
2023-03-06T02:13:46.721Z,3.50
2023-03-06T02:16:22.134Z,2.93
2023-03-06T02:18:53.796Z,3.88
2023-03-06T02:21:36.198Z,3.43
2023-03-06T02:24:20.732Z,3.63
2023-03-06T02:26:53.128Z,3.60
2023-03-06T02:29:28.407Z,3.10
2023-03-06T02:31:59.808Z,4.23
2023-03-06T02:34:36.989Z,4.10
2023-03-06T02:37:10.762Z,3.23
2023-03-06T02:39:46.803Z,3.30
2023-03-06T02:42:20.716Z,3.38
2023-03-06T02:44:53.946Z,3.50
2023-03-06T02:47:25.468Z,3.47
2023-03-06T02:49:56.743Z,2.97
2023-03-06T02:52:28.220Z,4.23
2023-03-06T02:54:59.470Z,4.40
2023-03-06T02:57:30.730Z,3.40
2023-03-06T03:00:02.014Z,3.67
2023-03-06T03:02:33.375Z,3.30
2023-03-06T03:05:05.094Z,3.70
2023-03-06T03:07:36.607Z,3.00
2023-03-06T03:10:08.676Z,3.37
2023-03-06T03:12:40.654Z,3.70
2023-03-06T03:15:12.009Z,3.30
2023-03-06T03:17:43.301Z,3.50
2023-03-06T03:20:18.485Z,3.67
2023-03-06T03:22:54.959Z,3.43
2023-03-06T03:25:26.443Z,3.93
2023-03-06T03:27:57.705Z,3.30
2023-03-06T03:30:29.037Z,3.30
2023-03-06T03:33:00.333Z,3.70
2023-03-06T03:35:31.821Z,3.40
2023-03-06T03:38:03.295Z,3.60
2023-03-06T03:40:34.564Z,3.93
2023-03-06T03:43:05.821Z,3.90
2023-03-06T03:45:37.086Z,4.00
2023-03-06T03:48:08.390Z,3.90
2023-03-06T03:50:39.675Z,3.50
2023-03-06T03:53:10.985Z,4.27
2023-03-06T03:55:42.435Z,3.83
2023-03-06T03:58:13.711Z,4.27
2023-03-06T04:00:45.616Z,4.00
2023-03-06T04:03:16.951Z,3.67
2023-03-06T04:05:48.227Z,3.80
2023-03-06T04:08:20.333Z,3.53
2023-03-06T04:10:52.679Z,4.17
2023-03-06T04:13:24.198Z,3.80
2023-03-06T04:15:56.246Z,3.93
2023-03-06T04:18:28.408Z,4.13
2023-03-06T04:20:59.777Z,3.50
2023-03-06T04:23:31.428Z,3.80
2023-03-06T04:26:03.302Z,4.00
2023-03-06T04:28:34.567Z,4.20
2023-03-06T04:31:05.975Z,3.67
2023-03-06T04:33:37.243Z,3.60
2023-03-06T04:36:24.219Z,3.90
2023-03-06T04:41:26.800Z,3.73
2023-03-06T04:43:58.112Z,3.50
2023-03-06T04:46:29.477Z,4.10
2023-03-06T04:49:00.893Z,4.17
2023-03-06T04:51:32.412Z,3.03
2023-03-06T04:54:04.585Z,3.40
2023-03-06T04:56:35.865Z,3.57
2023-03-06T04:59:07.509Z,3.57
2023-03-06T05:01:38.854Z,3.40
2023-03-06T05:04:10.154Z,2.97
2023-03-06T05:06:41.457Z,3.03
2023-03-06T05:09:12.848Z,2.70
2023-03-06T05:11:44.194Z,3.37
2023-03-06T05:14:15.491Z,2.97
2023-03-06T05:16:46.887Z,3.10
2023-03-06T05:19:18.287Z,3.50
2023-03-06T05:21:49.811Z,3.60
2023-03-06T05:24:21.075Z,2.83
2023-03-06T05:26:52.416Z,2.93
2023-03-06T05:29:23.735Z,3.13
2023-03-06T05:31:55.223Z,3.30
2023-03-06T05:34:26.625Z,3.10
2023-03-06T05:36:57.986Z,3.50
2023-03-06T05:39:30.139Z,2.90
2023-03-06T05:42:01.416Z,2.50
2023-03-06T05:44:34.196Z,2.93
2023-03-06T05:47:05.628Z,2.50
2023-03-06T05:49:36.881Z,2.17
2023-03-06T05:52:08.665Z,2.50
2023-03-06T05:54:39.923Z,2.40
2023-03-06T05:57:11.263Z,2.53
2023-03-06T05:59:43.287Z,2.70
2023-03-06T06:02:14.947Z,2.50
2023-03-06T06:04:46.221Z,2.80
2023-03-06T06:07:17.591Z,2.53
2023-03-06T06:09:53.199Z,3.03
2023-03-06T06:12:24.583Z,2.53
2023-03-06T06:14:56.030Z,3.33
2023-03-06T06:17:27.293Z,3.17
2023-03-06T06:19:58.645Z,2.97
2023-03-06T06:22:29.928Z,3.90
2023-03-06T06:25:01.197Z,3.87
2023-03-06T06:27:32.491Z,3.40
2023-03-06T06:30:05.815Z,3.67
2023-03-06T06:32:37.412Z,3.50
2023-03-06T06:35:09.081Z,4.00
2023-03-06T06:37:40.381Z,3.90
2023-03-06T06:40:12.090Z,3.87
2023-03-06T06:42:43.662Z,4.00
2023-03-06T06:45:14.973Z,5.00
2023-03-06T06:47:49.521Z,4.30
2023-03-06T06:50:20.999Z,4.57
2023-03-06T06:52:52.287Z,4.17
2023-03-06T06:55:23.540Z,4.83
2023-03-06T06:57:54.825Z,3.23
2023-03-06T07:00:26.349Z,4.17
2023-03-06T07:02:57.630Z,3.77
2023-03-06T07:05:28.937Z,4.60
2023-03-06T07:08:00.242Z,4.83
2023-03-06T07:10:31.620Z,4.07
2023-03-06T07:13:02.965Z,5.00
2023-03-06T07:15:34.331Z,4.27
2023-03-06T07:18:05.651Z,4.13
2023-03-06T07:20:37.135Z,3.40
2023-03-06T07:23:12.630Z,3.90
2023-03-06T07:25:43.953Z,3.88
2023-03-06T07:28:17.875Z,4.27
2023-03-06T07:30:49.919Z,3.70
2023-03-06T07:33:21.567Z,3.77
2023-03-06T07:35:52.893Z,3.87
2023-03-06T07:38:24.218Z,3.77
2023-03-06T07:40:55.490Z,3.37
2023-03-06T07:43:26.800Z,2.97
2023-03-06T07:45:59.786Z,3.53
2023-03-06T07:48:31.212Z,3.90
2023-03-06T07:51:05.243Z,4.17
2023-03-06T07:53:36.663Z,3.60
2023-03-06T07:56:09.009Z,3.63
2023-03-06T07:58:42.714Z,2.97
2023-03-06T08:01:17.148Z,3.60
2023-03-06T08:03:49.957Z,3.70
2023-03-06T08:06:23.741Z,3.53
2023-03-06T08:08:56.497Z,3.60
2023-03-06T08:11:30.260Z,4.23
2023-03-06T08:14:01.605Z,3.30
2023-03-06T08:16:32.916Z,3.50
2023-03-06T08:19:04.269Z,3.87
2023-03-06T08:21:35.598Z,3.67
2023-03-06T08:24:07.628Z,3.43
2023-03-06T08:26:39.785Z,3.37
2023-03-06T08:29:11.303Z,3.50
2023-03-06T08:31:44.549Z,3.57
2023-03-06T08:34:18.594Z,3.07
2023-03-06T08:36:50.659Z,3.30
2023-03-06T08:39:23.554Z,3.67
2023-03-06T08:41:54.874Z,3.00
2023-03-06T08:44:26.156Z,3.63
2023-03-06T08:46:57.444Z,3.13
2023-03-06T08:49:28.961Z,3.83
2023-03-06T08:52:00.861Z,3.80
2023-03-06T08:54:34.210Z,3.00
2023-03-06T08:57:06.476Z,3.57
2023-03-06T08:59:38.026Z,3.30
2023-03-06T09:02:12.736Z,3.03
2023-03-06T09:04:44.037Z,2.97
2023-03-06T09:07:15.314Z,2.80
2023-03-06T09:09:46.662Z,3.40
2023-03-06T09:12:17.931Z,3.50
2023-03-06T09:14:49.951Z,2.90
2023-03-06T09:17:21.263Z,3.27
2023-03-06T09:19:52.807Z,3.40
2023-03-06T09:22:24.118Z,3.37
2023-03-06T09:24:55.475Z,2.50
2023-03-06T09:27:30.387Z,2.93
2023-03-06T09:30:01.865Z,2.70
2023-03-06T09:32:33.249Z,2.57
2023-03-06T09:35:05.131Z,2.50
2023-03-06T09:37:36.601Z,2.70
2023-03-06T09:40:15.769Z,2.63
2023-03-06T09:42:47.280Z,2.67
2023-03-06T09:45:20.379Z,2.53
2023-03-06T09:48:14.971Z,2.67
2023-03-06T09:50:51.544Z,2.83
2023-03-06T09:53:41.087Z,2.20
2023-03-06T09:56:17.606Z,5.00
2023-03-06T09:58:53.910Z,5.33
2023-03-06T10:04:41.137Z,3.13
2023-03-06T10:07:21.461Z,3.13
2023-03-06T10:10:05.065Z,6.77
2023-03-06T10:12:42.434Z,3.30
2023-03-06T10:15:25.290Z,2.13
2023-03-06T10:17:57.412Z,2.40
2023-03-06T10:20:36.515Z,3.03
2023-03-06T10:23:52.602Z,2.60
2023-03-06T10:26:27.009Z,3.10
2023-03-06T10:29:14.516Z,2.50
2023-03-06T10:31:58.213Z,2.13
2023-03-06T10:34:35.590Z,2.23
2023-03-06T10:37:19.640Z,2.47
2023-03-06T10:40:12.939Z,2.27
2023-03-06T10:42:44.319Z,2.93
2023-03-06T10:45:16.823Z,1.97
2023-03-06T10:47:48.106Z,2.63
2023-03-06T10:50:27.246Z,2.00
2023-03-06T10:53:07.316Z,3.13
2023-03-06T10:55:38.835Z,4.07
2023-03-06T10:58:25.279Z,3.20
2023-03-06T11:01:21.150Z,2.20
2023-03-06T11:03:53.968Z,3.07
2023-03-06T11:06:37.218Z,2.17
2023-03-06T11:09:25.665Z,1.97
2023-03-06T11:12:19.486Z,1.70
2023-03-06T11:15:18.829Z,1.70
2023-03-06T11:17:59.439Z,1.60
2023-03-06T11:20:52.592Z,1.73
2023-03-06T11:23:42.607Z,2.10
2023-03-06T11:26:16.747Z,2.03
2023-03-06T11:28:57.313Z,1.60
2023-03-06T11:31:36.211Z,2.20
2023-03-06T11:34:23.835Z,1.47
2023-03-06T11:37:40.052Z,2.10
2023-03-06T11:40:11.331Z,1.77
2023-03-06T11:42:49.832Z,2.00
2023-03-06T11:45:45.657Z,2.27
2023-03-06T11:48:27.780Z,1.70
2023-03-06T11:51:21.734Z,1.50
2023-03-06T11:53:54.893Z,1.20
2023-03-06T11:56:44.611Z,1.40
2023-03-06T11:59:50.992Z,1.67
2023-03-06T12:02:39.535Z,1.23
2023-03-06T12:05:28.275Z,1.23
2023-03-06T12:08:12.627Z,1.00
2023-03-06T12:10:52.458Z,1.17
2023-03-06T12:13:49.779Z,1.50
2023-03-06T12:19:26.144Z,1.73
2023-03-06T12:22:08.095Z,1.60
2023-03-06T12:24:51.500Z,1.30
2023-03-06T12:27:44.085Z,1.53
2023-03-06T12:30:36.592Z,2.43
2023-03-06T12:33:37.168Z,2.13
2023-03-06T12:36:24.176Z,2.20
2023-03-06T12:39:08.204Z,2.67
2023-03-06T12:42:23.065Z,2.93
2023-03-06T12:45:10.337Z,2.73
2023-03-06T12:47:48.030Z,2.58
2023-03-06T12:50:24.134Z,2.60
2023-03-06T12:53:07.231Z,3.00
2023-03-06T12:55:49.650Z,3.23
2023-03-06T12:58:30.385Z,3.77
2023-03-06T13:01:08.974Z,3.17
2023-03-06T13:04:17.503Z,3.43
2023-03-06T13:07:27.921Z,4.27
2023-03-06T13:10:07.891Z,2.97
2023-03-06T13:13:00.618Z,3.20
2023-03-06T13:15:43.228Z,3.37
2023-03-06T13:18:40.588Z,2.80
2023-03-06T13:21:43.170Z,2.80
2023-03-06T13:24:29.009Z,3.07
2023-03-06T13:27:05.774Z,3.60
2023-03-06T13:29:37.015Z,3.10
2023-03-06T13:32:14.489Z,3.30
2023-03-06T13:34:49.978Z,3.70
2023-03-06T13:37:23.313Z,2.30
2023-03-06T13:39:54.582Z,4.80
2023-03-06T13:42:29.691Z,3.40
2023-03-06T13:45:25.531Z,5.10
2023-03-06T13:48:21.454Z,4.50
2023-03-06T13:50:51.302Z,4.17
2023-03-06T13:54:02.430Z,4.00
2023-03-06T13:56:36.699Z,4.23
2023-03-06T13:59:40.176Z,4.20
2023-03-06T14:02:39.531Z,4.23
2023-03-06T14:05:16.949Z,4.20
2023-03-06T14:08:10.048Z,4.00
2023-03-06T14:10:42.199Z,3.37
2023-03-06T14:13:17.295Z,3.57
2023-03-06T14:15:51.786Z,3.87
2023-03-06T14:18:38.339Z,2.97
2023-03-06T14:21:15.801Z,2.75
2023-03-06T14:23:58.877Z,2.90
2023-03-06T14:26:41.345Z,1.97
2023-03-06T14:29:22.043Z,1.80
2023-03-06T14:31:55.869Z,1.67
2023-03-06T14:34:37.684Z,1.50
2023-03-06T14:37:21.539Z,1.80
2023-03-06T14:39:52.950Z,1.63
2023-03-06T14:42:28.586Z,1.73
2023-03-06T14:45:19.207Z,2.03
2023-03-06T14:47:52.237Z,2.03
2023-03-06T14:50:34.177Z,2.07
2023-03-06T14:53:16.009Z,1.77
2023-03-06T14:56:01.614Z,2.40
2023-03-06T14:58:56.991Z,1.73
2023-03-06T15:01:39.124Z,2.20
2023-03-06T15:04:32.165Z,1.77
2023-03-06T15:07:11.479Z,1.50
2023-03-06T15:09:49.899Z,2.40
2023-03-06T15:12:21.314Z,1.63
2023-03-06T15:14:59.686Z,1.57
2023-03-06T15:17:42.122Z,1.70
2023-03-06T15:20:38.153Z,2.00
2023-03-06T15:23:18.198Z,1.53
2023-03-06T15:25:52.500Z,1.40
2023-03-06T15:28:28.232Z,1.27
2023-03-06T15:31:21.097Z,1.98
2023-03-06T15:34:06.334Z,2.60
2023-03-06T15:36:47.262Z,1.57
2023-03-06T15:39:33.808Z,1.27
2023-03-06T15:42:19.347Z,1.95
2023-03-06T15:44:53.642Z,1.70
2023-03-06T15:47:24.935Z,1.60
2023-03-06T15:49:56.852Z,2.00
2023-03-06T15:52:28.304Z,1.93
2023-03-06T15:54:59.571Z,1.40
2023-03-06T15:57:31.337Z,2.43
2023-03-06T16:00:02.659Z,1.80
2023-03-06T16:02:34.197Z,1.87
2023-03-06T16:05:15.288Z,2.10
2023-03-06T16:07:46.904Z,1.60
2023-03-06T16:10:23.759Z,1.60
2023-03-06T16:13:04.146Z,1.70
2023-03-06T16:15:40.597Z,2.53
2023-03-06T16:18:12.514Z,2.07
2023-03-06T16:20:44.216Z,2.23
2023-03-06T16:23:16.343Z,3.97
2023-03-06T16:25:49.135Z,3.60
2023-03-06T16:28:20.627Z,2.20
2023-03-06T16:30:52.060Z,1.97
2023-03-06T16:33:23.603Z,2.73
2023-03-06T16:35:54.888Z,3.80
2023-03-06T16:38:26.265Z,3.50
2023-03-06T16:40:57.524Z,2.80
2023-03-06T16:43:28.800Z,3.53
2023-03-06T16:46:05.364Z,4.57
2023-03-06T16:48:36.680Z,4.23
2023-03-06T16:51:09.204Z,3.80
2023-03-06T16:53:40.485Z,2.97
2023-03-06T16:56:13.101Z,2.90
2023-03-06T16:58:44.884Z,2.50
2023-03-06T17:01:18.878Z,4.43
2023-03-06T17:03:50.234Z,3.97
2023-03-06T17:06:22.779Z,2.67
2023-03-06T17:08:54.321Z,1.73
2023-03-06T17:11:26.027Z,1.40
2023-03-06T17:13:57.510Z,2.77
2023-03-06T17:16:28.785Z,9.73
2023-03-06T17:19:02.122Z,8.57
2023-03-06T17:21:35.282Z,9.27
2023-03-06T17:24:07.751Z,6.23
2023-03-06T17:26:40.018Z,3.50
2023-03-06T17:29:12.011Z,4.37
2023-03-06T17:31:43.303Z,4.73
2023-03-06T17:34:14.774Z,4.90
2023-03-06T17:36:46.056Z,6.43
2023-03-06T17:39:17.328Z,6.00
2023-03-06T17:41:48.992Z,4.10
2023-03-06T17:44:20.360Z,4.47
2023-03-06T17:46:52.134Z,7.40
2023-03-06T17:49:25.097Z,8.60
2023-03-06T17:51:58.156Z,8.07
2023-03-06T17:54:33.229Z,5.60
2023-03-06T17:57:05.645Z,29.93
2023-03-06T17:59:37.041Z,28.40
2023-03-06T18:02:09.653Z,43.33
2023-03-06T18:04:41.383Z,21.80
2023-03-06T18:07:12.819Z,10.87
2023-03-06T18:09:44.087Z,8.13
2023-03-06T18:12:15.656Z,9.93
2023-03-06T18:14:48.501Z,10.07
2023-03-06T18:17:19.757Z,9.17
2023-03-06T18:19:57.909Z,8.17
2023-03-06T18:22:29.317Z,8.43
2023-03-06T18:25:00.841Z,6.93
2023-03-06T18:27:33.304Z,5.80
2023-03-06T18:30:05.143Z,5.33
2023-03-06T18:32:36.453Z,3.87
2023-03-06T18:35:09.367Z,2.67
2023-03-06T18:37:40.646Z,3.50
2023-03-06T18:40:13.001Z,3.87
2023-03-06T18:42:44.320Z,2.63
2023-03-06T18:45:15.627Z,7.13
2023-03-06T18:47:46.885Z,6.07
2023-03-06T18:50:18.276Z,6.07
2023-03-06T18:52:49.602Z,5.77
2023-03-06T18:55:21.430Z,4.27
2023-03-06T18:57:52.711Z,3.53
2023-03-06T19:00:24.005Z,4.30
2023-03-06T19:02:55.440Z,4.50
2023-03-06T19:05:26.694Z,3.50
2023-03-06T19:07:58.231Z,3.37
2023-03-06T19:10:31.102Z,2.60
2023-03-06T19:13:02.838Z,2.90
2023-03-06T19:15:34.736Z,3.13
2023-03-06T19:18:06.005Z,2.70
2023-03-06T19:20:37.339Z,2.10
2023-03-06T19:23:09.125Z,2.30
2023-03-06T19:25:40.391Z,3.53
2023-03-06T19:28:11.676Z,3.43
2023-03-06T19:30:43.065Z,2.83
2023-03-06T19:33:15.448Z,2.10
2023-03-06T19:35:47.660Z,2.60
2023-03-06T19:38:18.956Z,2.20
2023-03-06T19:40:50.605Z,3.50
2023-03-06T19:43:22.899Z,2.90
2023-03-06T19:45:54.959Z,3.10
2023-03-06T19:48:26.247Z,3.70
2023-03-06T19:51:03.127Z,3.30
2023-03-06T19:53:37.737Z,3.23
2023-03-06T19:56:13.892Z,3.47
2023-03-06T19:58:45.330Z,3.28
2023-03-06T20:01:19.230Z,3.10
2023-03-06T20:03:56.028Z,3.47
2023-03-06T20:06:30.143Z,4.73
2023-03-06T20:09:03.696Z,4.50
2023-03-06T20:11:35.247Z,4.70
2023-03-06T20:14:08.582Z,4.80
2023-03-06T20:16:39.924Z,5.47
2023-03-06T20:19:11.705Z,5.27
2023-03-06T20:21:43.412Z,4.13
2023-03-06T20:24:16.725Z,3.63
2023-03-06T20:26:50.769Z,3.57
2023-03-06T20:29:22.270Z,4.23
2023-03-06T20:31:56.489Z,4.07
2023-03-06T20:34:27.954Z,3.60
2023-03-06T20:36:59.245Z,4.67
2023-03-06T20:39:30.536Z,4.50
2023-03-06T20:42:03.684Z,4.43
2023-03-06T20:44:35.002Z,4.27
2023-03-06T20:47:06.292Z,5.27
2023-03-06T20:49:38.357Z,6.20
2023-03-06T20:52:09.669Z,5.13
2023-03-06T20:54:41.018Z,5.60
2023-03-06T20:57:12.386Z,5.87
2023-03-06T20:59:44.997Z,5.40
2023-03-06T21:02:16.443Z,5.83
2023-03-06T21:04:47.931Z,6.83
2023-03-06T21:07:19.740Z,5.07
2023-03-06T21:09:52.111Z,5.07
2023-03-06T21:12:23.440Z,3.90
2023-03-06T21:14:54.852Z,4.73
2023-03-06T21:17:27.360Z,4.23
2023-03-06T21:19:58.755Z,3.87
2023-03-06T21:22:30.228Z,4.10
2023-03-06T21:25:01.519Z,4.50
2023-03-06T21:27:32.878Z,4.33
2023-03-06T21:30:04.936Z,4.10
2023-03-06T21:32:36.373Z,3.77
2023-03-06T21:35:07.845Z,3.47
2023-03-06T21:37:39.257Z,3.60
2023-03-06T21:40:11.592Z,4.00
2023-03-06T21:42:42.888Z,3.23
2023-03-06T21:45:14.215Z,3.43
2023-03-06T21:47:48.120Z,3.40
2023-03-06T21:50:19.395Z,2.63
2023-03-06T21:52:51.417Z,2.50
2023-03-06T21:55:23.019Z,3.30
2023-03-06T21:57:54.983Z,2.63
2023-03-06T22:00:26.295Z,2.90
2023-03-06T22:02:57.591Z,2.63
2023-03-06T22:05:29.995Z,2.90
2023-03-06T22:08:01.300Z,2.73
2023-03-06T22:10:32.542Z,3.07
2023-03-06T22:13:03.800Z,3.00
2023-03-06T22:15:35.060Z,3.63
2023-03-06T22:18:06.637Z,3.27
2023-03-06T22:20:39.397Z,2.83
2023-03-06T22:23:11.047Z,2.83
2023-03-06T22:25:42.351Z,3.20
2023-03-06T22:28:14.908Z,3.10
2023-03-06T22:30:46.195Z,3.40
2023-03-06T22:33:17.460Z,3.90
2023-03-06T22:35:48.757Z,4.07
2023-03-06T22:38:20.172Z,3.97
2023-03-06T22:40:51.452Z,5.00
2023-03-06T22:43:23.015Z,4.50
2023-03-06T22:45:54.362Z,5.57
2023-03-06T22:48:25.717Z,5.30
2023-03-06T22:51:02.340Z,6.03
2023-03-06T22:53:33.742Z,5.10
2023-03-06T22:56:07.862Z,5.93
2023-03-06T22:58:40.176Z,6.37
2023-03-06T23:01:19.635Z,6.37
2023-03-06T23:03:56.638Z,6.07
2023-03-06T23:06:36.192Z,6.60
2023-03-06T23:09:16.984Z,7.60
2023-03-06T23:11:49.415Z,6.37
2023-03-06T23:14:21.061Z,8.17
2023-03-06T23:16:52.528Z,7.13
2023-03-06T23:19:23.798Z,7.07
2023-03-06T23:21:55.148Z,7.80
2023-03-06T23:24:26.473Z,8.37
2023-03-06T23:26:57.768Z,8.67
2023-03-06T23:29:29.025Z,8.17
2023-03-06T23:32:00.325Z,7.67
2023-03-06T23:34:31.627Z,8.90
2023-03-06T23:37:03.075Z,9.10
2023-03-06T23:39:34.450Z,9.70
2023-03-06T23:42:06.003Z,10.20
2023-03-06T23:44:37.293Z,11.10
2023-03-06T23:47:08.563Z,9.37
2023-03-06T23:49:39.987Z,10.20
2023-03-06T23:52:11.337Z,10.17
2023-03-06T23:54:42.745Z,11.13
2023-03-06T23:57:14.119Z,12.17
2023-03-06T23:59:45.513Z,11.00
